Time;durP1;ratioP1;P1;durP2;ratioP2;P2;SDS_P1;SDS_P2;PMS_P1;PMS_P2;Temp;Humidity;BMP_temperature;BMP_pressure;BME280_temperature;BME280_humidity;BME280_pressure;Samples;Min_cycle;Max_cycle;Signal;HPM_P1;HPM_P2
2023/09/20 06:24:04;;;;;;;3.75;1.67;;;;;;;17.01;100.00;96156.19;5101211;27;21330;-70
2023/09/20 06:26:31;;;;;;;1.67;1.38;;;;;;;16.81;100.00;96152.84;5092287;28;20199;-70
2023/09/20 06:28:58;;;;;;;3.22;1.65;;;;;;;16.91;100.00;96148.66;5091418;28;20191;-70
2023/09/20 06:31:24;;;;;;;2.90;1.67;;;;;;;17.18;100.00;96150.91;5091945;28;20203;-70
2023/09/20 06:33:51;;;;;;;2.53;1.65;;;;;;;17.35;100.00;96149.31;5090330;28;20680;-70
2023/09/20 06:36:18;;;;;;;2.45;1.60;;;;;;;17.53;100.00;96146.66;5093005;28;20208;-70
2023/09/20 06:38:44;;;;;;;2.20;1.73;;;;;;;17.57;100.00;96150.50;5090997;28;20800;-70
2023/09/20 06:41:13;;;;;;;4.60;1.58;;;;;;;17.85;100.00;96142.81;5092625;28;20216;-70
2023/09/20 06:43:40;;;;;;;2.28;1.73;;;;;;;17.79;100.00;96143.69;5090421;28;20296;-70
2023/09/20 06:46:07;;;;;;;4.13;2.22;;;;;;;17.81;100.00;96145.09;5089983;28;20350;-70
2023/09/20 06:48:34;;;;;;;2.10;1.45;;;;;;;17.78;100.00;96142.06;5090685;28;20195;-70
2023/09/20 06:51:01;;;;;;;2.15;1.42;;;;;;;17.85;100.00;96140.94;5090296;28;20270;-70
2023/09/20 06:53:27;;;;;;;2.67;1.60;;;;;;;18.07;100.00;96141.28;5088110;28;20662;-70
2023/09/20 06:55:55;;;;;;;3.80;2.10;;;;;;;18.21;100.00;96142.78;5088305;28;20230;-70
2023/09/20 06:58:24;;;;;;;2.92;1.95;;;;;;;18.06;100.00;96129.81;5090287;28;20195;-70
2023/09/20 07:00:52;;;;;;;3.75;2.08;;;;;;;18.42;100.00;96135.88;5089430;28;20242;-70
2023/09/20 07:03:20;;;;;;;2.88;2.03;;;;;;;18.20;100.00;96125.13;5089542;28;20220;-70
2023/09/20 07:05:46;;;;;;;5.07;2.20;;;;;;;18.33;100.00;96130.28;5088612;28;21422;-70
2023/09/20 07:08:14;;;;;;;3.03;1.73;;;;;;;18.44;100.00;96120.47;5088382;28;20203;-70
2023/09/20 07:10:41;;;;;;;5.07;2.63;;;;;;;18.53;100.00;96121.78;5089338;28;20223;-70
2023/09/20 07:13:09;;;;;;;4.82;2.47;;;;;;;18.53;100.00;96121.78;5090606;28;20217;-70
2023/09/20 07:15:39;;;;;;;4.20;1.80;;;;;;;18.67;100.00;96117.88;5090062;28;20207;-70
2023/09/20 07:18:11;;;;;;;3.63;2.08;;;;;;;18.70;100.00;96120.06;5090474;28;20203;-70
2023/09/20 07:20:39;;;;;;;4.28;2.05;;;;;;;18.57;100.00;96116.78;5091574;28;20322;-70
2023/09/20 07:23:08;;;;;;;2.47;1.70;;;;;;;18.75;100.00;96120.19;5089659;28;20222;-70
2023/09/20 07:25:36;;;;;;;2.67;1.92;;;;;;;18.76;100.00;96115.66;5089771;28;20286;-70
2023/09/20 07:28:03;;;;;;;3.05;2.10;;;;;;;18.78;100.00;96118.94;5090840;28;20206;-70
2023/09/20 07:30:34;;;;;;;5.85;2.45;;;;;;;18.94;100.00;96114.53;5090955;28;20219;-70
2023/09/20 07:33:03;;;;;;;3.92;1.80;;;;;;;19.20;100.00;96110.63;5089729;28;20235;-70
2023/09/20 07:35:37;;;;;;;2.97;1.90;;;;;;;19.11;100.00;96114.69;5076885;28;20207;-70
2023/09/20 07:38:04;;;;;;;3.20;2.30;;;;;;;19.33;100.00;96113.03;5077278;28;20310;-71
2023/09/20 07:40:33;;;;;;;4.38;1.77;;;;;;;19.35;100.00;96108.28;5076725;28;20219;-70
2023/09/20 07:43:04;;;;;;;4.10;1.83;;;;;;;19.49;100.00;96120.34;5077932;28;20221;-70
2023/09/20 07:45:37;;;;;;;3.60;2.15;;;;;;;19.51;100.00;96115.59;5075138;28;20924;-70
2023/09/20 07:48:11;;;;;;;3.00;1.73;;;;;;;19.66;100.00;96106.03;5074634;28;20207;-70
2023/09/20 07:50:41;;;;;;;2.72;1.73;;;;;;;19.54;100.00;96110.59;5075287;28;20712;-71
2023/09/20 07:53:10;;;;;;;2.80;1.55;;;;;;;19.84;100.00;96105.88;5077148;28;20195;-70
2023/09/20 07:55:41;;;;;;;3.20;1.73;;;;;;;19.90;100.00;96103.06;5076723;28;20211;-70
2023/09/20 07:58:08;;;;;;;4.15;2.20;;;;;;;19.58;100.00;96099.19;5078147;28;20867;-70
2023/09/20 08:00:39;;;;;;;2.33;1.80;;;;;;;19.81;100.00;96101.81;5077516;28;20235;-70
2023/09/20 08:03:07;;;;;;;3.63;2.08;;;;;;;20.24;100.00;96102.16;5075696;28;20219;-70
2023/09/20 08:05:34;;;;;;;3.05;1.80;;;;;;;20.26;100.00;96100.03;5075103;28;20222;-70
2023/09/20 08:08:01;;;;;;;3.85;1.50;;;;;;;20.21;100.00;96097.25;5075390;28;20199;-70
2023/09/20 08:10:28;;;;;;;3.70;1.70;;;;;;;20.32;100.00;96099.09;5075982;28;20310;-70
2023/09/20 08:12:54;;;;;;;4.47;2.13;;;;;;;20.66;100.00;96098.91;5075419;28;20208;-70
2023/09/20 08:15:21;;;;;;;2.47;1.80;;;;;;;20.98;100.00;96091.97;5075434;28;20196;-70
2023/09/20 08:20:37;;;;;;;3.58;2.08;;;;;;;21.34;100.00;96078.81;5075871;28;20246;-70
2023/09/20 09:01:37;;;;;;;2.50;1.00;;;;;;;22.50;100.00;96080.81;5074897;28;20218;-70
2023/09/20 09:04:07;;;;;;;1.63;1.02;;;;;;;22.27;100.00;96081.13;5073457;28;20227;-70
2023/09/20 09:06:34;;;;;;;0.80;0.80;;;;;;;22.28;100.00;96080.06;5074515;28;20195;-70
2023/09/20 09:09:02;;;;;;;1.20;0.80;;;;;;;22.80;100.00;96086.47;5070793;28;20196;-71
2023/09/20 09:11:29;;;;;;;1.67;0.80;;;;;;;23.12;99.35;96090.00;5073752;28;20219;-70
2023/09/20 09:13:57;;;;;;;1.60;0.90;;;;;;;23.30;97.53;96084.19;5072278;28;21139;-71
2023/09/20 09:16:24;;;;;;;1.40;0.77;;;;;;;23.21;96.26;96077.69;5075128;28;20208;-71
2023/09/20 09:18:51;;;;;;;1.02;0.60;;;;;;;23.38;100.00;96087.19;5073812;28;20211;-71
2023/09/20 09:21:18;;;;;;;2.35;0.80;;;;;;;23.44;92.64;96084.28;5074397;28;20196;-71
2023/09/20 09:23:46;;;;;;;1.42;0.90;;;;;;;23.34;94.79;96078.84;5074175;28;20585;-70
2023/09/20 09:26:14;;;;;;;1.17;0.57;;;;;;;23.44;92.38;96081.59;5074678;28;20254;-70
2023/09/20 09:28:42;;;;;;;1.50;0.70;;;;;;;23.19;93.44;96087.88;5075583;28;20204;-71
2023/09/20 09:31:09;;;;;;;0.60;0.60;;;;;;;23.18;93.43;96079.00;5071860;28;20227;-71
2023/09/20 09:33:36;;;;;;;0.50;0.50;;;;;;;23.53;90.05;96074.63;5071052;28;20192;-71
2023/09/20 09:36:04;;;;;;;0.68;0.60;;;;;;;23.53;94.66;96068.47;5074508;28;20261;-71
2023/09/20 09:38:33;;;;;;;0.60;0.57;;;;;;;23.65;94.54;96061.81;5075072;28;20202;-71
2023/09/20 09:41:00;;;;;;;2.33;0.85;;;;;;;23.60;89.71;96055.56;5073802;28;20231;-70
2023/09/20 09:43:29;;;;;;;1.08;0.65;;;;;;;23.73;90.99;96055.94;5072497;28;20231;-70
2023/09/20 09:46:05;;;;;;;1.00;0.90;;;;;;;23.91;90.89;96055.47;5073929;28;20695;-70
2023/09/20 09:48:33;;;;;;;0.80;0.60;;;;;;;24.06;94.02;96058.25;5074630;28;20206;-71
2023/09/20 09:51:01;;;;;;;1.27;0.70;;;;;;;23.75;92.18;96051.13;5074160;28;20227;-70
2023/09/20 09:53:30;;;;;;;1.15;0.70;;;;;;;23.92;92.36;96054.41;5074355;28;20200;-70
2023/09/20 09:55:59;;;;;;;1.65;0.95;;;;;;;24.04;90.12;96053.13;5073271;28;20211;-70
2023/09/20 09:58:25;;;;;;;1.25;0.63;;;;;;;23.84;88.40;96046.03;5074552;28;20299;-70
2023/09/20 10:00:57;;;;;;;0.93;0.70;;;;;;;24.51;91.56;96047.59;5073272;28;20767;-70
2023/09/20 10:03:32;;;;;;;0.98;0.70;;;;;;;24.42;91.10;96041.91;5073164;28;20220;-71
2023/09/20 10:06:08;;;;;;;0.65;0.57;;;;;;;24.55;91.30;96037.91;5072072;28;20318;-70
2023/09/20 10:08:38;;;;;;;0.75;0.70;;;;;;;24.42;88.70;96031.13;5072340;28;20210;-70
2023/09/20 10:11:05;;;;;;;0.80;0.73;;;;;;;24.43;83.20;96032.75;5072189;28;20808;-70
2023/09/20 10:13:34;;;;;;;0.90;0.70;;;;;;;25.19;83.10;96024.44;5073475;28;20198;-70
2023/09/20 10:16:04;;;;;;;1.08;0.43;;;;;;;25.31;86.99;96019.53;5073521;28;20215;-70
2023/09/20 10:18:33;;;;;;;0.70;0.70;;;;;;;25.21;87.67;96016.88;5074961;28;20649;-70
2023/09/20 10:21:06;;;;;;;0.50;0.50;;;;;;;25.28;86.05;96017.41;5074079;28;20227;-70
2023/09/20 10:23:35;;;;;;;1.83;0.95;;;;;;;25.11;82.55;96013.38;5074724;28;20223;-71
2023/09/20 10:26:02;;;;;;;1.33;0.90;;;;;;;25.39;78.63;96019.81;5073749;28;20674;-71
2023/09/20 10:28:37;;;;;;;3.42;1.15;;;;;;;25.98;78.21;96018.78;5074712;28;20206;-71
2023/09/20 10:31:06;;;;;;;1.30;0.60;;;;;;;26.02;78.82;96010.94;5072548;28;20223;-71
2023/09/20 10:33:45;;;;;;;3.80;0.90;;;;;;;26.12;83.07;96014.41;5073167;28;20200;-71
2023/09/20 10:36:14;;;;;;;2.65;1.02;;;;;;;25.93;83.05;96008.00;5072327;28;20203;-71
2023/09/20 10:38:44;;;;;;;1.33;0.60;;;;;;;25.92;81.99;96003.69;5074644;28;20196;-71
2023/09/20 10:41:12;;;;;;;1.17;0.65;;;;;;;25.45;81.08;95996.31;5073184;28;20213;-71
2023/09/20 10:43:47;;;;;;;3.70;0.90;;;;;;;25.34;76.99;96000.94;5074546;28;20219;-71
2023/09/20 10:46:17;;;;;;;0.88;0.47;;;;;;;25.64;78.53;95991.94;5072273;28;20289;-71
2023/09/20 10:48:48;;;;;;;1.52;0.70;;;;;;;26.04;76.31;95992.56;5073167;28;20214;-71
2023/09/20 10:51:43;;;;;;;0.95;0.80;;;;;;;26.00;75.95;95992.28;5072073;28;20200;-71
2023/09/20 10:54:29;;;;;;;1.05;0.60;;;;;;;25.81;75.11;95987.00;5073369;28;20192;-71
2023/09/20 10:57:03;;;;;;;1.08;0.70;;;;;;;25.63;79.71;95984.91;5072431;28;20357;-71
2023/09/20 10:59:31;;;;;;;1.10;0.70;;;;;;;26.07;78.60;95992.81;5071849;28;20360;-71
2023/09/20 11:02:05;;;;;;;1.73;0.90;;;;;;;26.20;77.62;95984.09;5074306;28;20211;-71
2023/09/20 11:04:32;;;;;;;0.95;0.63;;;;;;;25.97;75.84;95973.97;5070994;28;20320;-71
2023/09/20 11:07:02;;;;;;;1.23;0.50;;;;;;;26.21;77.45;95964.09;5072082;28;20204;-71
2023/09/20 11:09:31;;;;;;;1.63;0.85;;;;;;;26.99;73.24;95962.97;5073899;28;20216;-71
2023/09/20 11:12:04;;;;;;;0.82;0.70;;;;;;;26.82;74.67;95949.84;5077606;28;20203;-71
2023/09/20 11:14:32;;;;;;;0.60;0.55;;;;;;;26.62;74.09;95954.63;5076152;28;20196;-71
2023/09/20 11:17:01;;;;;;;1.83;0.95;;;;;;;26.34;77.71;95951.88;5077000;28;20210;-71
2023/09/20 11:19:29;;;;;;;0.63;0.63;;;;;;;26.52;73.53;95944.69;5073198;28;20308;-71
2023/09/20 11:21:58;;;;;;;2.80;0.65;;;;;;;26.19;74.83;95938.44;5077167;28;20216;-71
2023/09/20 11:24:25;;;;;;;3.20;0.68;;;;;;;25.98;73.70;95937.78;5074371;28;20235;-71
2023/09/20 11:26:53;;;;;;;0.65;0.40;;;;;;;26.17;71.66;95936.03;5075591;28;20210;-71
2023/09/20 11:29:20;;;;;;;0.40;0.40;;;;;;;26.18;71.31;95937.63;5074416;28;20220;-71
2023/09/20 11:31:48;;;;;;;0.75;0.50;;;;;;;26.04;74.35;95935.84;5076092;28;20232;-71
2023/09/20 11:34:17;;;;;;;1.55;0.60;;;;;;;26.06;73.48;95931.78;5075444;28;20606;-71
2023/09/20 11:36:45;;;;;;;1.02;0.50;;;;;;;26.25;70.37;95929.22;5075666;28;20696;-71
2023/09/20 11:39:14;;;;;;;2.42;0.60;;;;;;;26.28;69.34;95932.16;5075095;28;20224;-71
2023/09/20 11:41:43;;;;;;;0.77;0.50;;;;;;;26.33;73.62;95926.72;5075834;28;20257;-71
2023/09/20 11:44:10;;;;;;;0.70;0.47;;;;;;;25.62;71.42;95929.31;5075835;28;20228;-71
2023/09/20 11:46:37;;;;;;;0.80;0.60;;;;;;;25.45;73.02;95931.56;5076238;28;20216;-71
2023/09/20 11:49:05;;;;;;;1.00;0.57;;;;;;;25.79;75.41;95927.06;5075502;28;20218;-71
2023/09/20 11:51:36;;;;;;;0.80;0.60;;;;;;;25.99;72.52;95927.75;5075062;28;20200;-71
2023/09/20 11:54:05;;;;;;;1.65;0.75;;;;;;;25.89;72.19;95917.84;5072674;28;20220;-71
2023/09/20 11:56:35;;;;;;;0.55;0.40;;;;;;;26.00;70.20;95922.06;5073813;28;20196;-71
2023/09/20 11:59:06;;;;;;;0.65;0.50;;;;;;;26.13;70.67;95916.06;5073985;28;20219;-71
2023/09/20 12:01:33;;;;;;;0.93;0.65;;;;;;;26.16;71.35;95912.00;5072293;28;20724;-71
2023/09/20 12:03:59;;;;;;;0.40;0.40;;;;;;;25.92;73.33;95914.56;5071927;28;20258;-71
2023/09/20 12:06:26;;;;;;;0.90;0.60;;;;;;;25.68;72.77;95918.19;5075037;28;20200;-71
2023/09/20 12:08:54;;;;;;;1.52;0.52;;;;;;;26.03;71.63;95913.44;5072506;28;20204;-71
2023/09/20 12:11:22;;;;;;;0.95;0.55;;;;;;;25.81;72.92;95909.50;5074517;28;20412;-71
2023/09/20 12:13:49;;;;;;;0.82;0.60;;;;;;;25.70;70.32;95917.91;5072962;28;20224;-71
2023/09/20 12:16:17;;;;;;;0.82;0.57;;;;;;;25.60;75.98;95905.28;5074201;28;20200;-71
2023/09/20 12:18:44;;;;;;;1.67;0.50;;;;;;;25.33;77.70;95899.50;5075066;28;20200;-71
2023/09/20 12:21:11;;;;;;;0.52;0.50;;;;;;;25.52;74.99;95905.06;5074725;28;20227;-71
2023/09/20 12:23:39;;;;;;;0.65;0.50;;;;;;;25.62;75.71;95892.31;5075478;28;20210;-71
2023/09/20 12:26:08;;;;;;;0.57;0.50;;;;;;;25.58;80.50;95893.16;5073964;28;20208;-71
2023/09/20 12:28:35;;;;;;;0.82;0.60;;;;;;;25.52;76.02;95886.16;5075697;28;20203;-71
2023/09/20 12:31:03;;;;;;;0.65;0.40;;;;;;;25.83;78.21;95880.34;5074538;28;20219;-71
2023/09/20 12:33:29;;;;;;;1.50;0.60;;;;;;;25.41;77.58;95876.53;5074760;28;20207;-71
2023/09/20 12:35:57;;;;;;;0.40;0.40;;;;;;;25.37;75.15;95870.88;5074546;28;20199;-71
2023/09/20 12:38:23;;;;;;;2.53;0.70;;;;;;;25.73;73.49;95871.53;5074635;28;20361;-71
2023/09/20 12:40:52;;;;;;;1.52;0.50;;;;;;;25.42;77.48;95865.44;5074762;28;20223;-71
2023/09/20 12:43:19;;;;;;;0.47;0.47;;;;;;;25.77;77.36;95849.06;5074838;28;20574;-71
2023/09/20 12:45:46;;;;;;;2.03;0.82;;;;;;;25.75;78.56;95855.84;5074330;28;20705;-71
2023/09/20 12:48:13;;;;;;;1.20;0.80;;;;;;;25.94;72.88;95844.91;5072737;28;20210;-71
2023/09/20 12:50:41;;;;;;;0.98;0.70;;;;;;;25.79;73.35;95846.09;5074357;28;20215;-71
2023/09/20 12:53:08;;;;;;;0.77;0.70;;;;;;;25.62;78.70;95851.03;5075762;28;20254;-70
2023/09/20 12:55:37;;;;;;;1.73;0.60;;;;;;;26.09;70.79;95844.78;5076033;28;20277;-71
2023/09/20 12:58:04;;;;;;;0.80;0.50;;;;;;;26.11;70.95;95844.50;5076016;28;20563;-71
2023/09/20 13:00:32;;;;;;;1.08;0.77;;;;;;;26.36;72.45;95847.81;5076456;28;20310;-71
2023/09/20 13:02:59;;;;;;;0.88;0.60;;;;;;;26.00;71.76;95846.47;5074516;28;20204;-71
2023/09/20 13:05:27;;;;;;;0.98;0.68;;;;;;;26.35;70.20;95850.81;5074301;28;20219;-71
2023/09/20 13:07:54;;;;;;;0.90;0.60;;;;;;;26.02;68.87;95838.91;5076187;28;20206;-71
2023/09/20 13:10:20;;;;;;;1.13;0.70;;;;;;;26.03;74.22;95831.59;5075437;28;20227;-71
2023/09/20 13:12:47;;;;;;;2.03;0.80;;;;;;;25.95;71.16;95814.13;5076105;28;20199;-71
2023/09/20 13:15:14;;;;;;;0.40;0.40;;;;;;;25.82;73.91;95821.25;5074878;28;20203;-71
2023/09/20 13:17:44;;;;;;;0.40;0.40;;;;;;;26.28;69.77;95815.19;5076266;28;20206;-71
2023/09/20 13:20:12;;;;;;;0.88;0.52;;;;;;;26.22;68.04;95813.59;5075188;28;20223;-71
2023/09/20 13:22:39;;;;;;;1.48;0.68;;;;;;;25.90;70.74;95805.22;5076502;28;20666;-71
2023/09/20 13:25:08;;;;;;;1.23;0.82;;;;;;;25.93;72.19;95805.47;5074022;28;20232;-71
2023/09/20 13:27:34;;;;;;;0.93;0.45;;;;;;;25.99;69.20;95803.53;5076035;28;20443;-71
2023/09/20 13:30:01;;;;;;;1.27;0.80;;;;;;;25.95;68.79;95794.41;5075899;28;20592;-71
2023/09/20 13:32:27;;;;;;;0.88;0.70;;;;;;;25.84;72.89;95784.78;5075741;28;20214;-71
2023/09/20 13:34:55;;;;;;;0.93;0.60;;;;;;;26.30;70.83;95784.09;5074477;28;20582;-71
2023/09/20 13:37:22;;;;;;;0.70;0.52;;;;;;;26.28;69.16;95791.66;5073504;28;20666;-71
2023/09/20 13:39:48;;;;;;;0.85;0.68;;;;;;;26.39;66.93;95779.72;5076337;28;20224;-71
2023/09/20 13:42:15;;;;;;;2.70;0.40;;;;;;;26.50;65.96;95781.19;5074217;28;20463;-71
2023/09/20 13:44:42;;;;;;;1.13;0.70;;;;;;;26.35;71.21;95780.53;5075269;28;20645;-70
2023/09/20 13:47:09;;;;;;;1.52;0.93;;;;;;;26.22;70.38;95771.22;5074507;28;20203;-70
2023/09/20 13:49:36;;;;;;;0.90;0.60;;;;;;;25.88;72.64;95765.03;5074905;28;20467;-71
2023/09/20 13:52:06;;;;;;;7.72;0.77;;;;;;;26.18;70.83;95758.53;5074746;28;20696;-71
2023/09/20 13:54:33;;;;;;;2.80;0.50;;;;;;;26.51;72.18;95758.47;5073440;28;20222;-70
2023/09/20 13:56:59;;;;;;;0.60;0.57;;;;;;;26.74;65.15;95765.78;5075651;28;20218;-72
2023/09/20 13:59:29;;;;;;;0.98;0.70;;;;;;;26.47;68.57;95758.25;5074700;28;20602;-71
2023/09/20 14:01:57;;;;;;;1.08;0.50;;;;;;;26.56;66.18;95753.81;5075225;28;20639;-70
2023/09/20 14:04:24;;;;;;;1.38;0.75;;;;;;;26.55;65.19;95738.72;5074145;28;20314;-70
2023/09/20 14:06:51;;;;;;;2.42;0.50;;;;;;;26.50;65.14;95746.88;5075003;28;20200;-71
2023/09/20 14:09:20;;;;;;;0.85;0.50;;;;;;;26.77;69.90;95738.16;5073759;28;20310;-71
2023/09/20 14:11:47;;;;;;;1.10;0.70;;;;;;;26.66;71.50;95734.00;5074547;28;20206;-71
2023/09/20 14:14:14;;;;;;;3.08;0.73;;;;;;;26.42;72.12;95732.38;5073201;28;20295;-71
2023/09/20 14:16:40;;;;;;;2.83;0.65;;;;;;;26.60;66.19;95741.38;5075137;28;20298;-71
2023/09/20 14:19:07;;;;;;;0.52;0.50;;;;;;;26.72;64.31;95733.63;5074388;28;20210;-71
2023/09/20 14:21:34;;;;;;;0.47;0.40;;;;;;;27.02;66.83;95735.19;5075315;28;20420;-71
2023/09/20 14:24:04;;;;;;;1.27;0.55;;;;;;;27.12;62.60;95731.22;5074402;28;20450;-71
2023/09/20 14:26:37;;;;;;;1.45;0.50;;;;;;;27.02;60.90;95721.66;5073329;28;20363;-70
2023/09/20 14:29:04;;;;;;;0.70;0.40;;;;;;;27.28;62.16;95721.81;5074889;28;20235;-70
2023/09/20 14:31:31;;;;;;;0.93;0.73;;;;;;;27.33;61.61;95723.63;5073418;28;20196;-71
2023/09/20 14:33:57;;;;;;;0.82;0.60;;;;;;;27.46;61.23;95718.28;5074665;28;20203;-70
2023/09/20 14:36:24;;;;;;;0.90;0.50;;;;;;;27.26;60.87;95718.59;5074242;28;20203;-71
2023/09/20 14:38:50;;;;;;;0.77;0.70;;;;;;;27.37;61.25;95716.56;5074994;28;20211;-71
2023/09/20 14:41:17;;;;;;;0.60;0.50;;;;;;;27.08;60.16;95716.69;5073949;28;20200;-71
2023/09/20 14:43:45;;;;;;;0.50;0.50;;;;;;;27.53;60.38;95712.50;5075132;28;20556;-71
2023/09/20 14:46:11;;;;;;;0.35;0.35;;;;;;;27.31;61.12;95712.31;5077067;28;20223;-71
2023/09/20 14:48:38;;;;;;;0.75;0.50;;;;;;;27.67;62.93;95708.78;5078376;28;20257;-70
2023/09/20 14:51:04;;;;;;;1.20;0.52;;;;;;;27.83;62.46;95710.16;5077485;28;20224;-71
2023/09/20 14:53:32;;;;;;;1.75;0.73;;;;;;;27.83;59.71;95707.44;5076351;28;20587;-70
2023/09/20 14:55:58;;;;;;;0.57;0.50;;;;;;;27.65;59.31;95705.56;5076599;28;20951;-70
2023/09/20 14:58:26;;;;;;;1.35;0.68;;;;;;;27.91;58.59;95699.41;5076607;28;20200;-70
2023/09/20 15:00:54;;;;;;;0.95;0.63;;;;;;;28.26;58.49;95698.00;5076855;28;20688;-71
2023/09/20 15:03:21;;;;;;;3.20;0.60;;;;;;;28.32;59.39;95694.09;5075136;28;20592;-70
2023/09/20 15:05:47;;;;;;;0.50;0.47;;;;;;;28.68;60.72;95688.50;5076128;28;20227;-71
2023/09/20 15:08:14;;;;;;;0.50;0.50;;;;;;;29.65;54.22;95682.25;5075510;28;20206;-71
2023/09/20 15:10:43;;;;;;;0.73;0.43;;;;;;;31.24;52.05;95691.50;5075467;28;20364;-71
2023/09/20 15:13:09;;;;;;;0.50;0.47;;;;;;;32.95;49.61;95692.44;5075018;28;20579;-71
2023/09/20 15:15:36;;;;;;;3.40;0.68;;;;;;;33.98;48.46;95692.19;5075662;28;20206;-71
2023/09/20 15:18:05;;;;;;;3.45;1.13;;;;;;;35.62;43.15;95682.09;5076050;28;20383;-71
2023/09/20 15:20:31;;;;;;;2.65;0.82;;;;;;;36.14;44.25;95676.19;5078013;28;20220;-71
2023/09/20 15:22:58;;;;;;;1.63;0.70;;;;;;;36.96;41.67;95669.72;5077902;28;20238;-71
2023/09/20 15:25:26;;;;;;;0.90;0.60;;;;;;;37.73;41.32;95662.13;5072692;28;20225;-72
2023/09/20 15:27:55;;;;;;;0.70;0.47;;;;;;;39.14;38.55;95673.44;5077617;28;20207;-71
2023/09/20 15:30:23;;;;;;;1.45;0.60;;;;;;;38.53;39.08;95653.47;5076723;28;20697;-72
2023/09/20 15:32:49;;;;;;;0.80;0.50;;;;;;;38.43;38.52;95658.00;5076965;28;20207;-72
2023/09/20 15:35:18;;;;;;;1.20;0.60;;;;;;;39.40;37.81;95654.13;5075912;28;20688;-72
2023/09/20 15:37:46;;;;;;;1.17;0.40;;;;;;;39.26;37.40;95648.41;5076111;28;20210;-70
2023/09/20 15:40:15;;;;;;;0.85;0.40;;;;;;;39.64;36.79;95648.97;5075962;28;20337;-69
2023/09/20 15:42:44;;;;;;;1.05;0.60;;;;;;;40.72;35.17;95640.00;5076029;28;20214;-70
2023/09/20 15:45:13;;;;;;;0.90;0.50;;;;;;;41.03;35.81;95636.69;5075542;28;20309;-69
2023/09/20 15:47:40;;;;;;;0.47;0.40;;;;;;;41.08;35.51;95630.84;5076512;28;20210;-70
2023/09/20 15:50:07;;;;;;;1.55;0.50;;;;;;;41.46;34.66;95630.31;5077503;28;20223;-69
2023/09/20 15:52:39;;;;;;;0.77;0.40;;;;;;;41.84;34.47;95631.31;5076237;28;20214;-70
2023/09/20 15:55:08;;;;;;;0.50;0.30;;;;;;;42.21;33.50;95628.25;5075230;28;20822;-70
2023/09/20 15:57:35;;;;;;;0.32;0.30;;;;;;;42.33;33.45;95631.50;5075474;28;20709;-69
2023/09/20 16:00:03;;;;;;;0.35;0.30;;;;;;;42.70;33.50;95635.53;5076151;28;20681;-69
2023/09/20 16:02:29;;;;;;;0.52;0.32;;;;;;;42.87;33.51;95629.19;5074875;28;20230;-69
2023/09/20 16:04:56;;;;;;;0.95;0.55;;;;;;;41.87;33.54;95627.75;5074182;28;20776;-69
2023/09/20 16:07:23;;;;;;;0.55;0.43;;;;;;;42.12;33.73;95619.53;5076452;28;20211;-69
2023/09/20 16:09:51;;;;;;;0.45;0.40;;;;;;;41.43;34.35;95629.06;5075936;28;20223;-69
2023/09/20 16:12:17;;;;;;;0.30;0.30;;;;;;;41.59;34.09;95623.25;5076480;28;20220;-69
2023/09/20 16:14:44;;;;;;;0.70;0.50;;;;;;;40.23;34.71;95626.88;5075727;28;20199;-69
2023/09/20 16:17:10;;;;;;;0.50;0.40;;;;;;;39.74;35.66;95623.47;5075408;28;20210;-68
2023/09/20 16:19:40;;;;;;;0.30;0.30;;;;;;;39.63;35.69;95619.78;5076300;28;20219;-69
2023/09/20 16:22:06;;;;;;;2.17;0.68;;;;;;;39.51;36.22;95616.47;5075778;28;20219;-68
2023/09/20 16:24:34;;;;;;;1.75;0.60;;;;;;;39.10;36.17;95609.97;5074901;28;20210;-69
2023/09/20 16:27:02;;;;;;;0.65;0.40;;;;;;;39.20;36.10;95611.28;5074888;28;20254;-69
2023/09/20 16:29:29;;;;;;;1.42;0.55;;;;;;;38.75;37.40;95610.56;5076377;28;20311;-69
2023/09/20 16:31:55;;;;;;;1.10;0.40;;;;;;;37.35;38.77;95601.56;5074900;28;20210;-69
2023/09/20 16:34:23;;;;;;;0.50;0.40;;;;;;;35.11;41.89;95603.41;5075459;28;20246;-68
2023/09/20 16:36:50;;;;;;;0.65;0.50;;;;;;;32.99;44.66;95600.56;5075371;28;20196;-68
2023/09/20 16:39:16;;;;;;;0.50;0.50;;;;;;;31.59;46.84;95593.13;5075651;28;20223;-68
2023/09/20 16:41:43;;;;;;;0.63;0.50;;;;;;;30.80;48.50;95595.66;5074887;28;20208;-68
2023/09/20 16:44:11;;;;;;;0.88;0.47;;;;;;;29.96;50.93;95583.38;5074549;28;20204;-68
2023/09/20 16:46:38;;;;;;;0.60;0.50;;;;;;;29.04;53.16;95588.97;5075987;28;20228;-69
2023/09/20 16:49:05;;;;;;;1.05;0.55;;;;;;;28.26;55.03;95589.59;5075481;28;20214;-70
2023/09/20 16:51:32;;;;;;;3.15;0.65;;;;;;;27.34;57.66;95588.06;5074810;28;20294;-71
2023/09/20 16:53:58;;;;;;;0.80;0.47;;;;;;;27.28;58.84;95589.22;5074045;28;20208;-71
2023/09/20 16:56:26;;;;;;;0.73;0.50;;;;;;;27.11;60.58;95580.84;5075263;28;20620;-70
2023/09/20 16:58:53;;;;;;;0.70;0.50;;;;;;;26.69;64.01;95577.44;5075255;28;20537;-70
2023/09/20 17:01:21;;;;;;;0.40;0.40;;;;;;;26.61;67.10;95579.97;5076420;28;20208;-70
2023/09/20 17:03:47;;;;;;;2.22;0.90;;;;;;;26.13;72.51;95583.03;5075752;28;20200;-70
2023/09/20 17:06:14;;;;;;;1.20;0.70;;;;;;;25.82;77.71;95591.78;5074170;28;20541;-70
2023/09/20 17:08:40;;;;;;;0.52;0.45;;;;;;;25.58;83.62;95585.50;5076227;28;20231;-71
2023/09/20 17:11:09;;;;;;;2.55;0.90;;;;;;;25.36;86.22;95577.91;5074428;28;20301;-70
2023/09/20 17:13:36;;;;;;;1.58;0.60;;;;;;;25.07;89.34;95572.78;5074365;28;20204;-71
2023/09/20 17:16:04;;;;;;;0.73;0.70;;;;;;;24.91;91.44;95569.38;5074269;28;20204;-70
2023/09/20 17:18:32;;;;;;;2.22;0.80;;;;;;;24.53;95.90;95571.25;5077161;28;20204;-71
2023/09/20 17:20:59;;;;;;;1.60;0.80;;;;;;;24.25;97.35;95575.44;5075864;28;20235;-70
2023/09/20 17:23:26;;;;;;;1.20;0.50;;;;;;;23.70;100.00;95572.16;5071744;28;21259;-70
2023/09/20 17:25:53;;;;;;;0.68;0.57;;;;;;;23.25;100.00;95573.31;5073584;28;20219;-70
2023/09/20 17:28:20;;;;;;;0.98;0.82;;;;;;;22.87;100.00;95573.81;5073789;28;20204;-71
2023/09/20 17:30:47;;;;;;;1.05;0.60;;;;;;;22.81;100.00;95566.81;5073719;28;20382;-70
2023/09/20 17:33:13;;;;;;;1.23;1.02;;;;;;;22.52;100.00;95567.63;5073601;28;20791;-70
2023/09/20 17:35:41;;;;;;;1.85;0.70;;;;;;;22.38;100.00;95558.47;5075851;28;20203;-70
2023/09/20 17:38:08;;;;;;;1.73;0.65;;;;;;;22.30;100.00;95569.72;5073660;28;20196;-70
2023/09/20 17:40:35;;;;;;;2.67;0.70;;;;;;;22.15;100.00;95570.47;5074344;28;20307;-71
2023/09/20 17:43:01;;;;;;;0.75;0.63;;;;;;;21.97;100.00;95572.00;5074022;28;20203;-71
2023/09/20 17:45:28;;;;;;;0.75;0.70;;;;;;;21.62;100.00;95567.28;5074270;28;20590;-70
2023/09/20 17:47:54;;;;;;;2.10;0.90;;;;;;;21.55;100.00;95571.28;5074216;28;20248;-70
2023/09/20 17:50:21;;;;;;;1.13;0.80;;;;;;;21.46;100.00;95572.81;5074202;28;20620;-71
2023/09/20 17:52:50;;;;;;;0.75;0.63;;;;;;;21.61;100.00;95570.22;5073778;28;20206;-71
2023/09/20 17:55:18;;;;;;;1.75;0.65;;;;;;;21.38;100.00;95570.59;5072564;28;20334;-70
2023/09/20 17:57:44;;;;;;;1.67;1.00;;;;;;;21.27;100.00;95574.31;5075544;28;20605;-72
2023/09/20 18:00:13;;;;;;;2.58;1.33;;;;;;;21.21;100.00;95572.66;5074437;28;20239;-70
2023/09/20 18:02:40;;;;;;;0.70;0.60;;;;;;;21.38;100.00;95569.81;5074376;28;21171;-71
2023/09/20 18:05:07;;;;;;;2.08;0.90;;;;;;;21.03;100.00;95574.94;5074476;28;20303;-71
2023/09/20 18:07:34;;;;;;;5.35;1.35;;;;;;;20.85;100.00;95578.03;5075018;28;20224;-71
2023/09/20 18:10:03;;;;;;;0.80;0.70;;;;;;;20.98;100.00;95578.38;5074804;28;20243;-70
2023/09/20 18:12:29;;;;;;;0.77;0.70;;;;;;;20.77;100.00;95578.47;5075496;28;20296;-71
2023/09/20 18:14:56;;;;;;;0.80;0.80;;;;;;;20.49;100.00;95581.44;5075031;28;20673;-71
2023/09/20 18:17:23;;;;;;;1.13;0.82;;;;;;;20.50;100.00;95582.22;5075169;28;20693;-71
2023/09/20 18:19:49;;;;;;;1.63;1.00;;;;;;;20.72;100.00;95581.09;5074410;28;20234;-71
2023/09/20 18:22:16;;;;;;;0.90;0.73;;;;;;;20.77;100.00;95588.38;5075115;28;20241;-70
2023/09/20 18:24:45;;;;;;;0.75;0.60;;;;;;;20.63;100.00;95587.16;5074690;28;20203;-70
2023/09/20 18:27:14;;;;;;;0.82;0.63;;;;;;;20.86;100.00;95593.84;5074085;28;20228;-71
2023/09/20 18:29:40;;;;;;;0.80;0.80;;;;;;;20.74;100.00;95588.91;5075504;28;20230;-71
2023/09/20 18:32:07;;;;;;;3.40;1.00;;;;;;;20.97;100.00;95586.69;5074631;28;20257;-71
2023/09/20 18:34:35;;;;;;;1.48;0.93;;;;;;;20.90;100.00;95589.56;5074526;28;20312;-71
2023/09/20 18:37:03;;;;;;;1.98;0.88;;;;;;;20.79;100.00;95587.06;5074939;28;20200;-71
2023/09/20 18:39:29;;;;;;;0.90;0.77;;;;;;;20.73;100.00;95587.28;5074236;28;20227;-71